createdAt,value
2023-05-07T00:01:35.588Z,75.27
2023-05-07T00:04:05.934Z,74.87
2023-05-07T00:06:36.907Z,74.85
2023-05-07T00:09:07.326Z,75.20
2023-05-07T00:11:40.290Z,75.52
2023-05-07T00:14:10.409Z,75.17
2023-05-07T00:16:40.703Z,75.57
2023-05-07T00:19:10.914Z,74.65
2023-05-07T00:21:41.406Z,75.40
2023-05-07T00:24:11.754Z,75.47
2023-05-07T00:26:44.694Z,74.62
2023-05-07T00:29:15.257Z,74.13
2023-05-07T00:31:45.731Z,73.95
2023-05-07T00:34:15.953Z,73.53
2023-05-07T00:36:46.175Z,74.13
2023-05-07T00:39:16.410Z,73.37
2023-05-07T00:41:49.328Z,73.69
2023-05-07T00:44:19.754Z,72.92
2023-05-07T00:46:51.187Z,70.65
2023-05-07T00:49:22.777Z,72.13
2023-05-07T00:51:54.253Z,72.13
2023-05-07T00:54:25.176Z,72.17
2023-05-07T00:56:59.012Z,72.80
2023-05-07T00:59:29.302Z,72.79
2023-05-07T01:01:59.537Z,72.90
2023-05-07T01:04:30.932Z,73.08
2023-05-07T01:07:02.780Z,72.81
2023-05-07T01:09:33.855Z,73.50
2023-05-07T01:12:07.763Z,73.76
2023-05-07T01:14:38.731Z,73.88
2023-05-07T01:17:09.630Z,74.70
2023-05-07T01:19:40.030Z,75.33
2023-05-07T01:22:12.986Z,76.08
2023-05-07T01:24:55.368Z,76.54
2023-05-07T01:27:25.786Z,76.93
2023-05-07T01:29:56.779Z,76.73
2023-05-07T01:32:33.283Z,77.05
2023-05-07T01:35:11.909Z,77.31
2023-05-07T01:37:45.636Z,77.43
2023-05-07T01:40:18.927Z,77.40
2023-05-07T01:42:52.252Z,77.57
2023-05-07T01:45:22.616Z,77.91
2023-05-07T01:47:53.729Z,77.79
2023-05-07T01:50:27.337Z,77.71
2023-05-07T01:52:57.862Z,77.89
2023-05-07T01:55:33.820Z,78.31
2023-05-07T01:58:04.241Z,78.16
2023-05-07T02:00:34.612Z,77.69
2023-05-07T02:03:05.021Z,77.96
2023-05-07T02:05:43.520Z,77.82
2023-05-07T02:08:20.842Z,78.08
2023-05-07T02:10:55.108Z,78.52
2023-05-07T02:13:26.191Z,78.87
2023-05-07T02:15:56.732Z,78.82
2023-05-07T02:18:28.403Z,78.67
2023-05-07T02:20:58.628Z,79.16
2023-05-07T02:23:29.025Z,79.29
2023-05-07T02:26:01.854Z,78.84
2023-05-07T02:28:32.495Z,78.35
2023-05-07T02:31:06.947Z,78.27
2023-05-07T02:33:38.459Z,78.65
2023-05-07T02:36:11.914Z,78.98
2023-05-07T02:39:04.050Z,79.13
2023-05-07T02:41:36.944Z,78.75
2023-05-07T02:44:07.456Z,78.86
2023-05-07T02:46:37.913Z,79.42
2023-05-07T02:49:12.473Z,79.95
2023-05-07T02:51:42.716Z,79.36
2023-05-07T02:54:17.160Z,79.14
2023-05-07T02:56:50.499Z,80.03
2023-05-07T02:59:20.743Z,79.56
2023-05-07T03:01:53.187Z,80.13
2023-05-07T03:04:23.420Z,80.24
2023-05-07T03:06:53.670Z,79.87
2023-05-07T03:09:24.129Z,79.86
2023-05-07T03:11:56.854Z,79.67
2023-05-07T03:14:27.321Z,79.15
2023-05-07T03:16:57.762Z,79.84
2023-05-07T03:19:28.316Z,80.25
2023-05-07T03:21:58.636Z,80.04
2023-05-07T03:24:28.848Z,79.90
2023-05-07T03:27:02.327Z,78.99
2023-05-07T03:29:33.152Z,79.64
2023-05-07T03:32:03.302Z,79.36
2023-05-07T03:34:33.625Z,79.51
2023-05-07T03:37:06.826Z,79.75
2023-05-07T03:39:37.004Z,80.26
2023-05-07T03:42:10.465Z,79.87
2023-05-07T03:44:41.548Z,80.05
2023-05-07T03:47:11.824Z,80.75
2023-05-07T03:49:42.917Z,80.29
2023-05-07T03:52:13.324Z,80.50
2023-05-07T03:54:43.669Z,80.21
2023-05-07T03:57:18.928Z,80.78
2023-05-07T03:59:49.160Z,80.82
2023-05-07T04:02:19.652Z,80.80
2023-05-07T04:04:50.220Z,80.83
2023-05-07T04:07:21.655Z,80.45
2023-05-07T04:09:54.150Z,80.19
2023-05-07T04:12:27.281Z,80.39
2023-05-07T04:14:57.521Z,80.71
2023-05-07T04:17:28.202Z,80.28
2023-05-07T04:19:58.468Z,80.81
2023-05-07T04:22:29.751Z,80.73
2023-05-07T04:25:00.304Z,80.12
2023-05-07T04:27:33.917Z,80.20
2023-05-07T04:30:04.099Z,79.88
2023-05-07T04:32:38.817Z,79.93
2023-05-07T04:35:10.618Z,80.04
2023-05-07T04:37:41.291Z,80.11
2023-05-07T04:40:12.670Z,80.55
2023-05-07T04:42:45.820Z,79.59
2023-05-07T04:45:16.548Z,79.95
2023-05-07T04:47:48.953Z,81.28
2023-05-07T04:50:20.525Z,80.31
2023-05-07T04:52:52.451Z,80.75
2023-05-07T04:55:22.936Z,80.61
2023-05-07T04:57:56.852Z,81.36
2023-05-07T05:00:28.279Z,81.09
2023-05-07T05:03:01.144Z,80.76
2023-05-07T05:05:32.822Z,80.00
2023-05-07T05:08:03.799Z,79.51
2023-05-07T05:10:34.009Z,79.27
2023-05-07T05:13:06.871Z,78.59
2023-05-07T05:15:37.195Z,78.95
2023-05-07T05:18:07.711Z,79.12
2023-05-07T05:20:39.768Z,78.97
2023-05-07T05:23:11.690Z,79.79
2023-05-07T05:25:41.967Z,79.71
2023-05-07T05:28:17.424Z,78.65
2023-05-07T05:30:47.648Z,78.96
2023-05-07T05:33:18.119Z,78.53
2023-05-07T05:35:48.346Z,78.73
2023-05-07T05:38:19.029Z,78.46
2023-05-07T05:40:49.549Z,78.70
2023-05-07T05:43:22.360Z,77.90
2023-05-07T05:45:52.815Z,77.52
2023-05-07T05:48:23.892Z,78.16
2023-05-07T05:50:54.247Z,78.17
2023-05-07T05:53:24.557Z,78.07
2023-05-07T05:55:54.928Z,77.96
2023-05-07T05:58:28.624Z,77.71
2023-05-07T06:01:04.034Z,77.97
2023-05-07T06:03:34.742Z,78.21
2023-05-07T06:06:09.599Z,78.35
2023-05-07T06:08:39.798Z,78.47
2023-05-07T06:11:10.485Z,78.92
2023-05-07T06:13:46.138Z,80.13
2023-05-07T06:16:16.587Z,78.76
2023-05-07T06:18:47.828Z,77.78
2023-05-07T06:21:19.399Z,76.44
2023-05-07T06:23:49.585Z,77.27
2023-05-07T06:26:19.787Z,75.83
2023-05-07T06:29:00.130Z,75.17
2023-05-07T06:31:33.812Z,74.38
2023-05-07T06:34:10.285Z,74.02
2023-05-07T06:36:41.984Z,74.07
2023-05-07T06:39:41.440Z,74.85
2023-05-07T06:42:11.610Z,74.85
2023-05-07T06:44:48.148Z,75.02
2023-05-07T06:47:20.844Z,74.95
2023-05-07T06:49:55.174Z,74.15
2023-05-07T06:52:28.592Z,73.11
2023-05-07T06:54:59.103Z,73.34
2023-05-07T06:57:30.420Z,73.07
2023-05-07T07:00:03.272Z,72.97
2023-05-07T07:02:35.762Z,73.05
2023-05-07T07:05:06.025Z,74.19
2023-05-07T07:07:36.395Z,72.55
2023-05-07T07:10:07.257Z,71.90
2023-05-07T07:12:38.446Z,71.00
2023-05-07T07:15:12.291Z,71.45
2023-05-07T07:17:42.743Z,70.45
2023-05-07T07:20:14.290Z,70.01
2023-05-07T07:22:46.970Z,70.26
2023-05-07T07:25:18.446Z,70.09
2023-05-07T07:27:49.038Z,70.69
2023-05-07T07:30:22.460Z,70.31
2023-05-07T07:32:54.015Z,70.02
2023-05-07T07:35:25.775Z,70.61
2023-05-07T07:37:56.746Z,70.52
2023-05-07T07:40:27.278Z,70.14
2023-05-07T07:42:58.358Z,70.44
2023-05-07T07:45:31.554Z,69.88
2023-05-07T07:48:01.980Z,69.64
2023-05-07T07:50:44.464Z,69.83
2023-05-07T07:53:18.705Z,69.62
2023-05-07T07:55:49.221Z,68.16
2023-05-07T07:58:23.320Z,68.45
2023-05-07T08:00:57.163Z,68.22
2023-05-07T08:03:29.347Z,68.49
2023-05-07T08:06:02.457Z,68.65
2023-05-07T08:08:34.109Z,67.86
2023-05-07T08:11:04.393Z,66.68
2023-05-07T08:13:37.156Z,66.16
2023-05-07T08:16:10.406Z,66.08
2023-05-07T08:18:41.217Z,65.46
2023-05-07T08:21:12.272Z,66.07
2023-05-07T08:23:43.267Z,65.93
2023-05-07T08:26:13.715Z,64.62
2023-05-07T08:28:43.999Z,64.94
2023-05-07T08:31:16.898Z,63.37
2023-05-07T08:33:48.764Z,61.18
2023-05-07T08:36:20.490Z,61.14
2023-05-07T08:38:50.981Z,59.70
2023-05-07T08:41:21.585Z,57.50
2023-05-07T08:43:53.575Z,58.40
2023-05-07T08:46:27.117Z,58.60
2023-05-07T08:48:59.819Z,59.86
2023-05-07T08:51:30.792Z,59.24
2023-05-07T08:54:02.253Z,58.37
2023-05-07T08:56:36.042Z,58.79
2023-05-07T08:59:06.555Z,58.18
2023-05-07T09:01:39.953Z,57.57
2023-05-07T09:04:10.890Z,58.88
2023-05-07T09:06:43.221Z,56.93
2023-05-07T09:09:18.744Z,57.17
2023-05-07T09:11:49.610Z,55.94
2023-05-07T09:14:25.765Z,55.70
2023-05-07T09:16:59.581Z,55.89
2023-05-07T09:19:30.941Z,56.09
2023-05-07T09:22:04.949Z,56.69
2023-05-07T09:24:44.858Z,55.84
2023-05-07T09:27:15.688Z,55.73
2023-05-07T09:29:51.053Z,55.67
2023-05-07T09:32:28.535Z,55.83
2023-05-07T09:34:58.946Z,55.57
2023-05-07T09:37:30.906Z,55.96
2023-05-07T09:40:01.238Z,53.58
2023-05-07T09:42:33.848Z,51.90
2023-05-07T09:45:10.579Z,50.09
2023-05-07T09:47:49.316Z,50.07
2023-05-07T09:50:21.898Z,49.34
2023-05-07T09:52:52.970Z,49.90
2023-05-07T09:55:23.692Z,48.94
2023-05-07T09:57:55.139Z,48.17
2023-05-07T10:00:26.634Z,47.57
2023-05-07T10:03:07.682Z,48.67
2023-05-07T10:05:50.264Z,47.96
2023-05-07T10:08:24.697Z,47.70
2023-05-07T10:10:59.543Z,47.39
2023-05-07T10:13:32.094Z,47.82
2023-05-07T10:16:06.601Z,47.16
2023-05-07T10:18:47.370Z,47.91
2023-05-07T10:21:24.494Z,46.92
2023-05-07T10:24:02.928Z,46.19
2023-05-07T10:26:36.883Z,44.39
2023-05-07T10:29:11.450Z,43.34
2023-05-07T10:31:58.015Z,41.33
2023-05-07T10:34:47.606Z,38.49
2023-05-07T10:37:18.133Z,38.72
2023-05-07T10:39:49.322Z,38.04
2023-05-07T10:42:19.815Z,37.28
2023-05-07T10:44:54.728Z,37.20
2023-05-07T10:47:29.411Z,37.02
2023-05-07T10:50:29.688Z,36.86
2023-05-07T10:53:27.163Z,34.91
2023-05-07T10:56:33.107Z,34.65
2023-05-07T10:59:43.335Z,33.94
2023-05-07T11:02:22.286Z,32.18
2023-05-07T11:05:24.787Z,32.33
2023-05-07T11:08:20.312Z,32.34
2023-05-07T11:11:01.012Z,31.41
2023-05-07T11:13:47.608Z,30.53
2023-05-07T11:16:39.049Z,31.03
2023-05-07T11:19:19.279Z,30.12
2023-05-07T11:21:52.982Z,30.76
2023-05-07T11:24:48.100Z,31.11
2023-05-07T11:27:18.599Z,31.41
2023-05-07T11:29:51.333Z,30.30
2023-05-07T11:32:26.883Z,29.72
2023-05-07T11:34:58.431Z,28.91
2023-05-07T11:37:31.017Z,29.14
2023-05-07T11:40:15.333Z,28.40
2023-05-07T11:42:46.099Z,27.98
2023-05-07T11:45:16.257Z,27.69
2023-05-07T11:47:46.601Z,27.49
2023-05-07T11:50:19.799Z,28.15
2023-05-07T11:52:55.373Z,27.56
2023-05-07T11:55:28.511Z,27.63
2023-05-07T11:57:58.678Z,26.89
2023-05-07T12:00:29.054Z,26.74
2023-05-07T12:02:59.712Z,26.83
2023-05-07T12:05:30.299Z,27.07
2023-05-07T12:08:01.013Z,26.61
2023-05-07T12:10:34.137Z,25.84
2023-05-07T12:13:04.480Z,25.41
2023-05-07T12:15:34.852Z,25.45
2023-05-07T12:18:05.809Z,25.36
2023-05-07T12:20:36.124Z,25.08
2023-05-07T12:23:06.898Z,24.33
2023-05-07T12:25:43.587Z,24.29
2023-05-07T12:28:17.364Z,24.78
2023-05-07T12:30:48.504Z,24.16
2023-05-07T12:33:22.860Z,24.37
2023-05-07T12:35:53.073Z,24.69
2023-05-07T12:38:23.244Z,25.85
2023-05-07T12:40:58.450Z,25.85
2023-05-07T12:43:30.119Z,26.65
2023-05-07T12:46:01.297Z,26.63
2023-05-07T12:48:31.524Z,27.30
2023-05-07T12:51:03.461Z,28.09
2023-05-07T12:53:34.252Z,27.14
2023-05-07T12:56:10.188Z,26.58
2023-05-07T12:58:40.992Z,26.76
2023-05-07T13:01:16.680Z,26.91
2023-05-07T13:03:52.687Z,26.48
2023-05-07T13:06:23.086Z,26.22
2023-05-07T13:08:53.229Z,27.16
2023-05-07T13:11:26.987Z,26.72
2023-05-07T13:13:57.153Z,26.57
2023-05-07T13:16:27.372Z,26.22
2023-05-07T13:18:57.548Z,25.28
2023-05-07T13:21:28.260Z,25.78
2023-05-07T13:23:59.234Z,24.52
2023-05-07T13:26:33.830Z,24.81
2023-05-07T13:29:04.037Z,25.02
2023-05-07T13:31:35.070Z,25.02
2023-05-07T13:34:05.355Z,24.66
2023-05-07T13:36:38.346Z,24.28
2023-05-07T13:39:08.655Z,22.46
2023-05-07T13:41:41.749Z,22.45
2023-05-07T13:44:12.039Z,22.63
2023-05-07T13:46:42.244Z,23.97
2023-05-07T13:49:13.664Z,23.64
2023-05-07T13:51:43.811Z,23.11
2023-05-07T13:54:13.952Z,23.64
2023-05-07T13:56:46.756Z,24.21
2023-05-07T13:59:19.168Z,24.10
2023-05-07T14:01:49.412Z,24.52
2023-05-07T14:04:19.606Z,25.72
2023-05-07T14:06:49.701Z,25.58
2023-05-07T14:09:19.886Z,24.23
2023-05-07T14:11:53.271Z,23.79
2023-05-07T14:14:23.654Z,24.86
2023-05-07T14:16:53.843Z,25.79
2023-05-07T14:19:24.736Z,26.05
2023-05-07T14:21:55.293Z,26.67
2023-05-07T14:24:37.549Z,27.63
2023-05-07T14:27:11.252Z,28.99
2023-05-07T14:29:41.615Z,29.84
2023-05-07T14:32:11.840Z,31.09
2023-05-07T14:34:42.124Z,30.44
2023-05-07T14:37:12.337Z,31.41
2023-05-07T14:39:42.781Z,31.72
2023-05-07T14:42:15.701Z,32.35
2023-05-07T14:44:46.715Z,31.02
2023-05-07T14:47:19.059Z,31.70
2023-05-07T14:49:50.166Z,33.47
2023-05-07T14:52:20.325Z,35.07
2023-05-07T14:54:50.469Z,36.05
2023-05-07T14:57:23.771Z,33.44
2023-05-07T14:59:54.012Z,30.94
2023-05-07T15:02:24.265Z,31.57
2023-05-07T15:04:54.480Z,32.59
2023-05-07T15:07:24.635Z,34.16
2023-05-07T15:09:55.432Z,35.18
2023-05-07T15:12:28.393Z,36.75
2023-05-07T15:14:58.534Z,35.20
2023-05-07T15:17:28.758Z,34.76
2023-05-07T15:19:58.958Z,34.42
2023-05-07T15:22:29.185Z,33.76
2023-05-07T15:24:59.992Z,33.63
2023-05-07T15:27:33.149Z,34.72
2023-05-07T15:30:03.458Z,34.89
2023-05-07T15:32:35.397Z,35.46
2023-05-07T15:35:05.684Z,36.84
2023-05-07T15:37:36.029Z,37.84
2023-05-07T15:40:07.794Z,39.72
2023-05-07T15:42:40.624Z,39.61
2023-05-07T15:45:12.928Z,41.04
2023-05-07T15:47:43.433Z,42.69
2023-05-07T15:50:14.395Z,43.50
2023-05-07T15:52:46.174Z,43.53
2023-05-07T15:55:16.535Z,43.54
2023-05-07T15:57:49.347Z,44.74
2023-05-07T16:00:20.023Z,45.77
2023-05-07T16:02:50.260Z,45.92
2023-05-07T16:05:20.479Z,46.78
2023-05-07T16:07:50.770Z,47.07
2023-05-07T16:10:21.330Z,47.95
2023-05-07T16:12:54.533Z,48.61
2023-05-07T16:15:25.185Z,49.02
2023-05-07T16:17:58.504Z,48.57
2023-05-07T16:20:32.645Z,48.72
2023-05-07T16:23:03.004Z,49.93
2023-05-07T16:25:33.300Z,49.86
2023-05-07T16:28:06.728Z,50.18
2023-05-07T16:30:36.986Z,50.50
2023-05-07T16:33:08.363Z,50.54
2023-05-07T16:35:38.545Z,50.99
2023-05-07T16:38:10.581Z,50.47
2023-05-07T16:40:41.899Z,51.15
2023-05-07T16:43:14.766Z,51.16
2023-05-07T16:45:44.925Z,51.04
2023-05-07T16:48:15.112Z,51.96
2023-05-07T16:50:45.729Z,51.79
2023-05-07T16:53:16.079Z,51.96
2023-05-07T16:55:46.483Z,52.42
2023-05-07T16:58:19.312Z,52.91
2023-05-07T17:00:51.202Z,52.61
2023-05-07T17:03:22.251Z,53.31
2023-05-07T17:05:52.726Z,53.17
2023-05-07T17:08:22.904Z,53.12
2023-05-07T17:10:53.080Z,53.42
2023-05-07T17:13:26.022Z,53.30
2023-05-07T17:15:56.293Z,53.89
2023-05-07T17:18:26.553Z,54.40
2023-05-07T17:20:56.803Z,54.52
2023-05-07T17:23:27.153Z,54.98
2023-05-07T17:25:57.344Z,55.27
2023-05-07T17:28:32.851Z,55.02
2023-05-07T17:31:02.964Z,55.39
2023-05-07T17:33:33.352Z,55.33
2023-05-07T17:36:04.015Z,55.55
2023-05-07T17:38:34.455Z,56.24
2023-05-07T17:41:04.916Z,56.19
2023-05-07T17:43:37.703Z,55.95
2023-05-07T17:46:08.075Z,56.25
2023-05-07T17:48:41.014Z,56.87
2023-05-07T17:51:11.331Z,57.29
2023-05-07T17:53:41.487Z,57.62
2023-05-07T17:56:12.964Z,58.00
2023-05-07T17:58:58.545Z,58.09
2023-05-07T18:01:29.793Z,58.64
2023-05-07T18:04:00.763Z,58.96
2023-05-07T18:06:30.975Z,58.87
2023-05-07T18:09:01.161Z,59.60
2023-05-07T18:11:33.445Z,60.18
2023-05-07T18:14:06.356Z,60.44
2023-05-07T18:16:36.626Z,60.47
2023-05-07T18:19:06.800Z,60.87
2023-05-07T18:21:37.087Z,61.10
2023-05-07T18:24:07.731Z,60.90
2023-05-07T18:26:37.935Z,61.70
2023-05-07T18:29:11.035Z,61.83
2023-05-07T18:31:41.204Z,61.71
2023-05-07T18:34:11.322Z,62.66
2023-05-07T18:36:41.645Z,62.90
2023-05-07T18:39:12.032Z,62.44
2023-05-07T18:41:42.994Z,62.28
2023-05-07T18:44:15.822Z,62.49
2023-05-07T18:46:48.033Z,62.66
2023-05-07T18:49:18.345Z,62.82
2023-05-07T18:51:48.766Z,63.37
2023-05-07T18:54:19.104Z,63.30
2023-05-07T18:56:49.325Z,63.26
2023-05-07T18:59:22.600Z,63.56
2023-05-07T19:01:53.168Z,63.40
2023-05-07T19:04:24.697Z,63.53
2023-05-07T19:06:54.941Z,63.56
2023-05-07T19:09:25.170Z,63.82
2023-05-07T19:11:55.471Z,63.67
2023-05-07T19:14:28.360Z,64.15
2023-05-07T19:16:58.947Z,64.26
2023-05-07T19:19:29.979Z,64.62
2023-05-07T19:22:00.210Z,64.63
2023-05-07T19:24:30.433Z,64.99
2023-05-07T19:27:00.835Z,65.02
2023-05-07T19:29:34.521Z,64.83
2023-05-07T19:32:04.715Z,65.01
2023-05-07T19:34:36.013Z,65.23
2023-05-07T19:37:06.775Z,65.34
2023-05-07T19:39:37.082Z,65.47
2023-05-07T19:42:07.502Z,66.23
2023-05-07T19:44:40.315Z,66.10
2023-05-07T19:47:10.641Z,66.45
2023-05-07T19:49:40.784Z,66.30
2023-05-07T19:52:10.963Z,66.14
2023-05-07T19:54:41.172Z,66.15
2023-05-07T19:57:11.520Z,66.26
2023-05-07T19:59:44.309Z,66.07
2023-05-07T20:02:15.940Z,66.01
2023-05-07T20:04:46.359Z,66.13
2023-05-07T20:07:16.663Z,66.08
2023-05-07T20:09:46.839Z,66.06
2023-05-07T20:12:18.221Z,66.03
2023-05-07T20:14:51.027Z,66.20
2023-05-07T20:17:21.198Z,66.43
2023-05-07T20:19:51.442Z,66.71
2023-05-07T20:22:21.777Z,66.71
2023-05-07T20:24:51.960Z,66.82
2023-05-07T20:27:24.992Z,67.45
2023-05-07T20:29:57.871Z,67.43
2023-05-07T20:32:28.400Z,67.58
2023-05-07T20:34:58.779Z,67.73
2023-05-07T20:37:29.762Z,67.94
2023-05-07T20:40:00.010Z,68.08
2023-05-07T20:42:30.359Z,68.24
2023-05-07T20:45:04.158Z,68.39
2023-05-07T20:47:35.704Z,68.47
2023-05-07T20:50:06.210Z,68.68
2023-05-07T20:52:36.572Z,69.22
2023-05-07T20:55:07.330Z,69.30
2023-05-07T20:57:37.514Z,69.23
2023-05-07T21:00:11.839Z,69.43
2023-05-07T21:02:42.236Z,69.64
2023-05-07T21:05:12.932Z,69.75
2023-05-07T21:07:43.149Z,70.15
2023-05-07T21:10:13.877Z,70.18
2023-05-07T21:12:44.417Z,70.49
2023-05-07T21:15:17.476Z,70.78
2023-05-07T21:17:47.663Z,71.03
2023-05-07T21:20:18.141Z,71.10
2023-05-07T21:22:48.437Z,71.35
2023-05-07T21:25:18.922Z,71.33
2023-05-07T21:27:49.151Z,71.62
2023-05-07T21:30:22.122Z,71.82
2023-05-07T21:32:53.187Z,71.89
2023-05-07T21:35:23.544Z,72.13
2023-05-07T21:37:53.686Z,72.20
2023-05-07T21:40:24.039Z,72.32
2023-05-07T21:42:54.237Z,72.13
2023-05-07T21:45:27.073Z,71.74
2023-05-07T21:47:57.340Z,71.24
2023-05-07T21:50:27.633Z,70.82
2023-05-07T21:52:57.885Z,70.26
2023-05-07T21:55:28.108Z,70.04
2023-05-07T21:58:05.489Z,69.85
2023-05-07T22:00:39.372Z,69.24
2023-05-07T22:03:09.947Z,68.60
2023-05-07T22:05:40.341Z,68.76
2023-05-07T22:08:10.566Z,68.17
2023-05-07T22:10:41.186Z,67.80
2023-05-07T22:13:11.503Z,67.88
2023-05-07T22:15:53.605Z,67.61
2023-05-07T22:18:26.905Z,66.59
2023-05-07T22:20:57.113Z,67.02
2023-05-07T22:23:27.499Z,66.84
2023-05-07T22:25:57.711Z,66.50
2023-05-07T22:28:27.932Z,66.82
2023-05-07T22:31:00.741Z,66.63
2023-05-07T22:33:30.929Z,66.58
2023-05-07T22:36:01.074Z,66.76
2023-05-07T22:38:31.478Z,66.65
2023-05-07T22:41:02.355Z,66.68
2023-05-07T22:43:32.445Z,66.18
2023-05-07T22:46:05.402Z,66.42
2023-05-07T22:48:35.908Z,66.01
2023-05-07T22:51:06.683Z,66.20
2023-05-07T22:53:37.019Z,65.56
2023-05-07T22:56:11.723Z,65.44
2023-05-07T22:58:41.969Z,65.50
2023-05-07T23:01:18.960Z,65.17
2023-05-07T23:03:49.265Z,64.84
2023-05-07T23:06:19.510Z,64.86
2023-05-07T23:08:49.949Z,64.93
2023-05-07T23:11:21.249Z,64.67
2023-05-07T23:13:51.358Z,64.94
2023-05-07T23:16:24.300Z,65.10
2023-05-07T23:18:54.546Z,64.77
2023-05-07T23:21:25.129Z,65.03
2023-05-07T23:23:56.082Z,64.76
2023-05-07T23:26:26.963Z,64.49
2023-05-07T23:28:57.195Z,64.43
2023-05-07T23:31:30.327Z,64.50
2023-05-07T23:34:00.684Z,64.55
2023-05-07T23:36:31.662Z,64.62
2023-05-07T23:39:01.864Z,64.77
2023-05-07T23:41:32.200Z,65.07
2023-05-07T23:44:05.677Z,64.94
2023-05-07T23:46:38.896Z,65.14
2023-05-07T23:49:09.346Z,65.32
2023-05-07T23:51:39.732Z,65.43
2023-05-07T23:54:09.988Z,65.43
2023-05-07T23:56:40.276Z,65.55
2023-05-07T23:59:12.921Z,65.78
